createdAt,value
2019-01-04T00:00:03.194Z,13.70
2019-01-04T00:01:03.364Z,14.20
2019-01-04T00:02:03.534Z,13.30
2019-01-04T00:03:03.701Z,13.70
2019-01-04T00:04:03.880Z,13.90
2019-01-04T00:05:04.043Z,13.30
2019-01-04T00:06:04.212Z,13.60
2019-01-04T00:07:04.385Z,13.60
2019-01-04T00:08:04.555Z,14.00
2019-01-04T00:09:05.733Z,13.90
2019-01-04T00:10:04.897Z,13.80
2019-01-04T00:11:05.068Z,14.90
2019-01-04T00:12:05.235Z,13.90
2019-01-04T00:13:05.411Z,14.40
2019-01-04T00:14:05.590Z,14.20
2019-01-04T00:15:05.753Z,14.00
2019-01-04T00:16:05.924Z,13.40
2019-01-04T00:17:06.099Z,14.00
2019-01-04T00:18:06.272Z,14.40
2019-01-04T00:19:06.433Z,13.30
2019-01-04T00:20:06.606Z,13.80
2019-01-04T00:21:06.783Z,13.70
2019-01-04T00:22:06.969Z,14.00
2019-01-04T00:23:07.121Z,13.10
2019-01-04T00:24:07.296Z,14.30
2019-01-04T00:25:07.458Z,13.80
2019-01-04T00:26:07.637Z,14.00
2019-01-04T00:27:07.797Z,15.00
2019-01-04T00:28:07.969Z,14.60
2019-01-04T00:29:08.143Z,14.00
2019-01-04T00:30:08.312Z,14.20
2019-01-04T00:31:08.488Z,14.40
2019-01-04T00:32:08.655Z,14.00
2019-01-04T00:33:08.827Z,13.40
2019-01-04T00:34:08.996Z,17.30
2019-01-04T00:35:09.170Z,16.70
2019-01-04T00:36:09.338Z,18.40
2019-01-04T00:37:09.507Z,18.40
2019-01-04T00:38:09.677Z,18.80
2019-01-04T00:39:09.852Z,18.50
2019-01-04T00:40:10.022Z,18.30
2019-01-04T00:41:10.193Z,19.20
2019-01-04T00:42:10.364Z,17.00
2019-01-04T00:43:10.541Z,16.20
2019-01-04T00:44:10.709Z,16.20
2019-01-04T00:45:10.888Z,15.00
2019-01-04T00:46:11.048Z,15.10
2019-01-04T00:47:11.219Z,14.90
2019-01-04T00:48:11.391Z,14.90
2019-01-04T00:49:11.561Z,15.00
2019-01-04T00:50:11.731Z,14.80
2019-01-04T00:51:11.901Z,14.50
2019-01-04T00:52:12.077Z,14.90
2019-01-04T00:53:12.254Z,15.10
2019-01-04T00:54:12.410Z,15.00
2019-01-04T00:55:12.575Z,15.50
2019-01-04T00:56:12.748Z,14.80
2019-01-04T00:57:12.913Z,15.10
2019-01-04T00:58:13.080Z,15.80
2019-01-04T00:59:13.250Z,14.90
2019-01-04T01:00:13.420Z,16.00
2019-01-04T01:01:13.589Z,15.10
2019-01-04T01:02:13.759Z,14.90
2019-01-04T01:03:13.932Z,14.90
2019-01-04T01:04:14.098Z,14.80
2019-01-04T01:05:14.271Z,16.00
2019-01-04T01:06:14.445Z,14.90
2019-01-04T01:07:15.536Z,14.70
2019-01-04T01:08:14.784Z,15.20
2019-01-04T01:09:14.957Z,15.80
2019-01-04T01:10:15.134Z,14.70
2019-01-04T01:11:15.307Z,15.70
2019-01-04T01:12:15.467Z,15.30
2019-01-04T01:13:15.636Z,15.60
2019-01-04T01:14:15.806Z,15.10
2019-01-04T01:15:15.976Z,14.90
2019-01-04T01:16:16.151Z,14.70
2019-01-04T01:17:16.321Z,15.10
2019-01-04T01:18:16.492Z,14.30
2019-01-04T01:19:16.660Z,14.30
2019-01-04T01:20:16.822Z,14.60
2019-01-04T01:21:16.989Z,14.10
2019-01-04T01:22:17.164Z,14.40
2019-01-04T01:23:17.330Z,14.30
2019-01-04T01:24:17.500Z,15.00
2019-01-04T01:25:17.672Z,15.10
2019-01-04T01:26:18.731Z,15.30
2019-01-04T01:27:17.991Z,16.10
2019-01-04T01:28:18.161Z,16.70
2019-01-04T01:29:18.331Z,16.00
2019-01-04T01:30:18.521Z,17.00
2019-01-04T01:31:18.673Z,16.30
2019-01-04T01:32:18.843Z,17.20
2019-01-04T01:33:19.013Z,16.10
2019-01-04T01:34:19.186Z,17.20
2019-01-04T01:35:19.355Z,16.70
2019-01-04T01:36:19.526Z,15.80
2019-01-04T01:37:19.698Z,16.90
2019-01-04T01:38:19.876Z,16.70
2019-01-04T01:39:20.049Z,15.90
2019-01-04T01:40:20.206Z,15.70
2019-01-04T01:41:20.378Z,15.80
2019-01-04T01:42:20.547Z,15.70
2019-01-04T01:43:20.716Z,16.40
2019-01-04T01:44:20.894Z,16.10
2019-01-04T01:45:21.056Z,16.30
2019-01-04T01:46:21.229Z,16.50
2019-01-04T01:47:21.393Z,15.30
2019-01-04T01:48:21.563Z,15.30
2019-01-04T01:49:21.738Z,15.30
2019-01-04T01:50:21.898Z,15.40
2019-01-04T01:51:22.069Z,15.40
2019-01-04T01:52:22.256Z,15.00
2019-01-04T01:53:22.411Z,14.90
2019-01-04T01:54:22.580Z,15.30
2019-01-04T01:55:22.764Z,15.50
2019-01-04T01:56:22.927Z,15.20
2019-01-04T01:57:23.098Z,15.70
2019-01-04T01:58:23.280Z,15.40
2019-01-04T01:59:23.442Z,15.40
2019-01-04T02:00:23.620Z,15.80
2019-01-04T02:01:23.779Z,15.80
2019-01-04T02:02:23.953Z,15.10
2019-01-04T02:03:24.116Z,15.60
2019-01-04T02:04:24.285Z,16.40
2019-01-04T02:05:24.461Z,16.60
2019-01-04T02:06:24.642Z,15.80
2019-01-04T02:07:24.798Z,17.00
2019-01-04T02:08:25.014Z,15.90
2019-01-04T02:09:25.139Z,16.30
2019-01-04T02:10:25.311Z,17.30
2019-01-04T02:11:25.488Z,16.90
2019-01-04T02:12:25.647Z,17.50
2019-01-04T02:13:25.817Z,17.80
2019-01-04T02:14:25.993Z,17.70
2019-01-04T02:15:26.161Z,18.20
2019-01-04T02:16:26.347Z,19.10
2019-01-04T02:17:26.497Z,18.40
2019-01-04T02:18:26.667Z,17.80
2019-01-04T02:19:26.847Z,19.20
2019-01-04T02:20:27.013Z,18.90
2019-01-04T02:21:27.185Z,18.40
2019-01-04T02:22:27.352Z,18.90
2019-01-04T02:23:27.524Z,18.90
2019-01-04T02:24:27.690Z,18.00
2019-01-04T02:25:27.863Z,18.40
2019-01-04T02:26:28.029Z,18.30
2019-01-04T02:27:28.200Z,18.10
2019-01-04T02:28:28.355Z,17.80
2019-01-04T02:29:28.553Z,17.00
2019-01-04T02:30:28.723Z,18.30
2019-01-04T02:31:28.895Z,18.80
2019-01-04T02:32:29.067Z,18.10
2019-01-04T02:33:29.235Z,17.20
2019-01-04T02:34:29.407Z,18.10
2019-01-04T02:35:29.583Z,18.50
2019-01-04T02:36:29.749Z,18.30
2019-01-04T02:37:29.920Z,18.40
2019-01-04T02:38:30.085Z,19.40
2019-01-04T02:39:30.269Z,18.40
2019-01-04T02:40:30.430Z,18.20
2019-01-04T02:41:30.605Z,17.70
2019-01-04T02:42:30.775Z,17.90
2019-01-04T02:43:30.932Z,17.60
2019-01-04T02:44:31.111Z,17.80
2019-01-04T02:45:31.307Z,18.50
2019-01-04T02:46:31.462Z,17.40
2019-01-04T02:47:31.623Z,18.30
2019-01-04T02:48:31.789Z,17.10
2019-01-04T02:49:31.995Z,16.50
2019-01-04T02:50:32.137Z,16.90
2019-01-04T02:51:32.311Z,17.20
2019-01-04T02:52:32.476Z,16.80
2019-01-04T02:53:32.646Z,16.80
2019-01-04T02:54:32.820Z,16.40
2019-01-04T02:55:32.990Z,16.40
2019-01-04T02:56:33.167Z,16.60
2019-01-04T02:57:33.342Z,15.80
2019-01-04T02:58:33.512Z,16.60
2019-01-04T02:59:33.675Z,17.20
2019-01-04T03:00:33.861Z,16.40
2019-01-04T03:01:34.011Z,16.50
2019-01-04T03:02:34.185Z,16.30
2019-01-04T03:03:34.352Z,15.70
2019-01-04T03:04:34.535Z,16.60
2019-01-04T03:05:34.698Z,16.00
2019-01-04T03:06:34.865Z,16.80
2019-01-04T03:07:35.036Z,16.50
2019-01-04T03:08:35.210Z,16.30
2019-01-04T03:09:35.383Z,18.30
2019-01-04T03:10:35.554Z,17.60
2019-01-04T03:11:35.729Z,17.40
2019-01-04T03:12:35.894Z,17.20
2019-01-04T03:13:36.061Z,16.50
2019-01-04T03:14:36.240Z,16.70
2019-01-04T03:15:36.409Z,16.50
2019-01-04T03:16:36.580Z,16.80
2019-01-04T03:17:36.748Z,16.70
2019-01-04T03:18:36.920Z,15.40
2019-01-04T03:19:37.084Z,15.50
2019-01-04T03:20:37.262Z,16.60
2019-01-04T03:21:37.427Z,16.00
2019-01-04T03:22:37.605Z,15.50
2019-01-04T03:23:37.769Z,15.80
2019-01-04T03:24:37.934Z,15.10
2019-01-04T03:25:38.104Z,16.80
2019-01-04T03:26:38.281Z,15.20
2019-01-04T03:27:38.449Z,15.60
2019-01-04T03:28:38.625Z,16.00
2019-01-04T03:29:38.786Z,14.90
2019-01-04T03:30:38.958Z,15.60
2019-01-04T03:31:39.136Z,15.90
2019-01-04T03:32:39.301Z,15.70
2019-01-04T03:33:39.476Z,15.90
2019-01-04T03:34:39.637Z,14.70
2019-01-04T03:35:39.809Z,14.70
2019-01-04T03:36:39.977Z,14.90
2019-01-04T03:37:40.150Z,15.10
2019-01-04T03:38:40.315Z,14.50
2019-01-04T03:39:40.490Z,15.00
2019-01-04T03:40:40.657Z,15.60
2019-01-04T03:41:40.828Z,14.80
2019-01-04T03:42:40.993Z,15.10
2019-01-04T03:43:41.165Z,14.10
2019-01-04T03:44:41.337Z,14.50
2019-01-04T03:45:41.519Z,14.50
2019-01-04T03:46:41.680Z,14.80
2019-01-04T03:47:41.849Z,15.50
2019-01-04T03:48:42.016Z,15.00
2019-01-04T03:49:42.190Z,15.70
2019-01-04T03:50:42.356Z,14.90
2019-01-04T03:51:42.533Z,15.20
2019-01-04T03:52:42.700Z,14.90
2019-01-04T03:53:42.865Z,15.50
2019-01-04T03:54:43.042Z,15.40
2019-01-04T03:55:43.207Z,15.20
2019-01-04T03:56:43.375Z,14.90
2019-01-04T03:57:43.551Z,14.60
2019-01-04T03:58:43.722Z,15.30
2019-01-04T03:59:43.925Z,15.30
2019-01-04T04:00:44.048Z,14.30
2019-01-04T04:01:44.251Z,14.90
2019-01-04T04:02:44.406Z,14.90
2019-01-04T04:03:44.569Z,14.90
2019-01-04T04:04:44.739Z,14.70
2019-01-04T04:05:44.912Z,14.50
2019-01-04T04:06:45.080Z,14.40
2019-01-04T04:07:45.248Z,14.70
2019-01-04T04:08:45.419Z,14.60
2019-01-04T04:09:45.590Z,15.10
2019-01-04T04:10:45.757Z,14.50
2019-01-04T04:11:45.942Z,15.00
2019-01-04T04:12:46.100Z,14.60
2019-01-04T04:13:46.277Z,14.80
2019-01-04T04:14:46.438Z,15.00
2019-01-04T04:15:46.609Z,14.80
2019-01-04T04:16:46.785Z,14.90
2019-01-04T04:17:46.952Z,15.10
2019-01-04T04:18:47.120Z,15.40
2019-01-04T04:19:47.290Z,15.40
2019-01-04T04:20:47.462Z,15.20
2019-01-04T04:21:47.630Z,15.70
2019-01-04T04:22:47.803Z,15.10
2019-01-04T04:23:47.973Z,15.20
2019-01-04T04:24:48.142Z,14.50
2019-01-04T04:25:48.317Z,15.10
2019-01-04T04:26:48.479Z,14.50
2019-01-04T04:27:48.651Z,14.40
2019-01-04T04:28:48.822Z,14.70
2019-01-04T04:29:48.994Z,14.80
2019-01-04T04:30:49.163Z,14.80
2019-01-04T04:31:49.333Z,14.80
2019-01-04T04:32:49.506Z,14.90
2019-01-04T04:33:49.675Z,14.90
2019-01-04T04:34:49.850Z,14.90
2019-01-04T04:35:50.016Z,14.20
2019-01-04T04:36:50.192Z,13.90
2019-01-04T04:37:50.357Z,14.00
2019-01-04T04:38:50.529Z,14.70
2019-01-04T04:39:50.696Z,14.80
2019-01-04T04:40:50.872Z,14.20
2019-01-04T04:41:51.045Z,14.80
2019-01-04T04:42:51.211Z,14.60
2019-01-04T04:43:51.379Z,14.00
2019-01-04T04:44:51.550Z,14.60
2019-01-04T04:45:51.748Z,13.70
2019-01-04T04:46:51.899Z,14.40
2019-01-04T04:47:52.067Z,14.00
2019-01-04T04:48:52.238Z,14.10
2019-01-04T04:49:52.415Z,13.90
2019-01-04T04:50:52.585Z,14.00
2019-01-04T04:51:52.748Z,15.10
2019-01-04T04:52:52.918Z,14.80
2019-01-04T04:53:53.087Z,14.40
2019-01-04T04:54:53.262Z,14.80
2019-01-04T04:55:53.422Z,14.60
2019-01-04T04:56:53.596Z,14.40
2019-01-04T04:57:53.770Z,14.30
2019-01-04T04:58:53.943Z,14.70
2019-01-04T04:59:54.110Z,14.30
2019-01-04T05:00:54.296Z,15.00
2019-01-04T05:01:54.448Z,14.30
2019-01-04T05:02:54.613Z,14.70
2019-01-04T05:03:54.785Z,14.40
2019-01-04T05:04:54.954Z,14.50
2019-01-04T05:05:55.124Z,14.40
2019-01-04T05:06:55.292Z,13.60
2019-01-04T05:07:55.466Z,14.10
2019-01-04T05:08:55.635Z,13.80
2019-01-04T05:09:55.802Z,14.50
2019-01-04T05:10:55.974Z,14.00
2019-01-04T05:11:56.155Z,13.80
2019-01-04T05:12:56.324Z,14.20
2019-01-04T05:13:56.493Z,15.00
2019-01-04T05:14:56.661Z,14.50
2019-01-04T05:15:56.832Z,14.30
2019-01-04T05:16:57.007Z,14.20
2019-01-04T05:17:57.184Z,14.30
2019-01-04T05:18:57.341Z,15.60
2019-01-04T05:19:57.513Z,14.60
2019-01-04T05:20:57.684Z,14.50
2019-01-04T05:21:57.862Z,14.10
2019-01-04T05:22:58.024Z,14.30
2019-01-04T05:23:58.193Z,14.30
2019-01-04T05:24:58.362Z,14.40
2019-01-04T05:25:58.532Z,14.50
2019-01-04T05:26:58.705Z,14.30
2019-01-04T05:27:58.877Z,15.10
2019-01-04T05:28:59.054Z,14.00
2019-01-04T05:29:59.213Z,14.20
2019-01-04T05:30:59.382Z,14.40
2019-01-04T05:31:59.551Z,15.20
2019-01-04T05:32:59.730Z,14.80
2019-01-04T05:33:59.903Z,15.60
2019-01-04T05:35:00.170Z,15.30
2019-01-04T05:36:00.260Z,15.30
2019-01-04T05:37:00.392Z,14.30
2019-01-04T05:38:00.568Z,15.00
2019-01-04T05:39:00.754Z,15.40
2019-01-04T05:40:00.903Z,15.10
2019-01-04T05:41:01.071Z,15.30
2019-01-04T05:42:01.248Z,16.10
2019-01-04T05:43:01.420Z,13.80
2019-01-04T05:44:01.586Z,14.90
2019-01-04T05:45:01.753Z,14.30
2019-01-04T05:46:01.928Z,14.60
2019-01-04T05:47:02.089Z,14.50
2019-01-04T05:48:02.279Z,14.40
2019-01-04T05:49:02.429Z,14.00
2019-01-04T05:50:02.597Z,14.70
2019-01-04T05:51:02.768Z,15.10
2019-01-04T05:52:02.951Z,14.40
2019-01-04T05:53:03.117Z,15.10
2019-01-04T05:54:03.288Z,13.80
2019-01-04T05:55:03.450Z,14.60
2019-01-04T05:56:03.638Z,14.70
2019-01-04T05:57:03.786Z,14.10
2019-01-04T05:58:03.950Z,14.60
2019-01-04T05:59:04.124Z,14.40
2019-01-04T06:00:04.303Z,14.60
2019-01-04T06:01:04.467Z,13.50
2019-01-04T06:02:04.638Z,14.20
2019-01-04T06:03:04.803Z,14.70
2019-01-04T06:04:04.979Z,14.80
2019-01-04T06:05:05.149Z,14.80
2019-01-04T06:06:05.324Z,15.10
2019-01-04T06:07:05.487Z,14.10
2019-01-04T06:08:05.653Z,13.80
2019-01-04T06:09:05.828Z,13.60
2019-01-04T06:10:05.990Z,14.00
2019-01-04T06:11:06.162Z,13.50
2019-01-04T06:12:06.331Z,14.10
2019-01-04T06:13:06.543Z,14.00
2019-01-04T06:14:06.666Z,14.80
2019-01-04T06:15:06.832Z,13.90
2019-01-04T06:16:07.002Z,14.20
2019-01-04T06:17:07.174Z,14.10
2019-01-04T06:18:07.346Z,14.30
2019-01-04T06:19:07.517Z,13.80
2019-01-04T06:20:07.694Z,13.70
2019-01-04T06:21:07.848Z,14.50
2019-01-04T06:22:08.014Z,14.00
2019-01-04T06:23:08.181Z,13.40
2019-01-04T06:24:08.356Z,14.20
2019-01-04T06:25:08.520Z,13.60
2019-01-04T06:26:08.687Z,14.20
2019-01-04T06:27:08.868Z,14.10
2019-01-04T06:28:09.025Z,13.80
2019-01-04T06:29:09.204Z,14.60
2019-01-04T06:30:09.371Z,13.60
2019-01-04T06:31:09.535Z,14.00
2019-01-04T06:32:09.703Z,14.40
2019-01-04T06:33:09.893Z,13.60
2019-01-04T06:34:10.055Z,13.70
2019-01-04T06:35:10.213Z,14.60
2019-01-04T06:36:10.384Z,14.90
2019-01-04T06:37:10.553Z,14.70
2019-01-04T06:38:10.719Z,14.80
2019-01-04T06:39:10.887Z,14.80
2019-01-04T06:40:11.063Z,14.70
2019-01-04T06:41:11.234Z,14.80
2019-01-04T06:42:11.405Z,14.80
2019-01-04T06:43:11.573Z,14.80
2019-01-04T06:44:11.745Z,15.20
2019-01-04T06:45:11.912Z,14.40
2019-01-04T06:46:12.079Z,15.20
2019-01-04T06:47:12.250Z,15.00
2019-01-04T06:48:12.420Z,14.40
2019-01-04T06:49:12.602Z,14.10
2019-01-04T06:50:12.767Z,14.70
2019-01-04T06:51:12.926Z,14.90
2019-01-04T06:52:13.104Z,14.50
2019-01-04T06:53:13.279Z,14.20
2019-01-04T06:54:13.446Z,14.40
2019-01-04T06:55:13.624Z,14.40
2019-01-04T06:56:13.783Z,14.10
2019-01-04T06:57:13.952Z,13.50
2019-01-04T06:58:14.122Z,13.10
2019-01-04T06:59:14.293Z,12.20
2019-01-04T07:00:14.508Z,12.20
2019-01-04T07:01:14.640Z,12.50
2019-01-04T07:02:14.808Z,12.20
2019-01-04T07:03:14.980Z,12.30
2019-01-04T07:04:15.162Z,11.90
2019-01-04T07:05:15.319Z,11.90
2019-01-04T07:06:15.492Z,11.60
2019-01-04T07:07:15.668Z,11.90
2019-01-04T07:08:15.837Z,11.50
2019-01-04T07:09:15.999Z,12.10
2019-01-04T07:10:16.170Z,11.30
2019-01-04T07:11:16.341Z,12.00
2019-01-04T07:12:16.510Z,11.50
2019-01-04T07:13:17.284Z,12.10
2019-01-04T07:14:16.857Z,12.00
2019-01-04T07:15:17.024Z,11.80
2019-01-04T07:16:17.192Z,11.50
2019-01-04T07:17:17.365Z,11.90
2019-01-04T07:18:17.525Z,11.90
2019-01-04T07:19:17.694Z,11.30
2019-01-04T07:20:17.871Z,11.40
2019-01-04T07:21:18.031Z,11.70
2019-01-04T07:22:18.202Z,11.60
2019-01-04T07:23:18.368Z,11.30
2019-01-04T07:24:18.560Z,11.10
2019-01-04T07:25:18.712Z,11.20
2019-01-04T07:26:18.879Z,11.00
2019-01-04T07:27:19.050Z,11.00
2019-01-04T07:28:19.227Z,10.80
2019-01-04T07:29:19.394Z,10.90
2019-01-04T07:30:19.573Z,11.20
2019-01-04T07:31:19.726Z,10.60
2019-01-04T07:32:19.879Z,11.90
2019-01-04T07:33:20.060Z,11.00
2019-01-04T07:34:20.224Z,10.70
2019-01-04T07:35:20.392Z,11.60
2019-01-04T07:36:20.561Z,12.00
2019-01-04T07:37:20.731Z,11.60
2019-01-04T07:38:21.010Z,12.20
2019-01-04T07:39:21.076Z,11.40
2019-01-04T07:40:21.243Z,11.40
2019-01-04T07:41:21.412Z,10.50
2019-01-04T07:42:21.586Z,11.40
2019-01-04T07:43:21.750Z,11.00
2019-01-04T07:44:21.921Z,11.20
2019-01-04T07:45:22.091Z,11.40
2019-01-04T07:46:22.263Z,11.00
2019-01-04T07:47:22.464Z,11.00
2019-01-04T07:48:22.579Z,11.00
2019-01-04T07:49:22.763Z,10.60
2019-01-04T07:50:22.935Z,10.90
2019-01-04T07:51:23.099Z,11.20
2019-01-04T07:52:23.264Z,10.10
2019-01-04T07:53:23.442Z,11.40
2019-01-04T07:54:23.613Z,10.30
2019-01-04T07:55:23.780Z,10.10
2019-01-04T07:56:23.958Z,10.10
2019-01-04T07:57:24.121Z,9.60
2019-01-04T07:58:24.293Z,9.80
2019-01-04T07:59:24.482Z,9.40
2019-01-04T08:00:24.641Z,9.50
2019-01-04T08:01:24.795Z,9.60
2019-01-04T08:02:24.966Z,10.00
2019-01-04T08:03:25.148Z,9.70
2019-01-04T08:04:25.323Z,9.90
2019-01-04T08:05:25.482Z,10.00
2019-01-04T08:06:25.651Z,9.90
2019-01-04T08:07:25.820Z,9.10
2019-01-04T08:08:25.992Z,10.00
2019-01-04T08:09:26.175Z,9.70
2019-01-04T08:10:26.330Z,9.50
2019-01-04T08:11:26.507Z,10.30
2019-01-04T08:12:26.665Z,9.80
2019-01-04T08:13:26.836Z,9.50
2019-01-04T08:14:27.002Z,9.30
2019-01-04T08:15:27.183Z,8.80
2019-01-04T08:16:27.352Z,9.20
2019-01-04T08:17:27.522Z,8.50
2019-01-04T08:18:27.688Z,8.20
2019-01-04T08:19:27.874Z,8.90
2019-01-04T08:20:28.042Z,8.70
2019-01-04T08:21:28.207Z,8.60
2019-01-04T08:22:28.379Z,8.90
2019-01-04T08:23:28.554Z,9.00
2019-01-04T08:24:28.723Z,8.50
2019-01-04T08:25:28.889Z,9.10
2019-01-04T08:26:29.059Z,9.20
2019-01-04T08:27:29.229Z,9.10
2019-01-04T08:28:29.399Z,9.20
2019-01-04T08:29:29.569Z,9.10
2019-01-04T08:30:29.735Z,9.40
2019-01-04T08:31:29.910Z,9.10
2019-01-04T08:32:30.104Z,9.50
2019-01-04T08:33:30.248Z,9.50
2019-01-04T08:34:30.418Z,9.50
2019-01-04T08:35:30.586Z,9.90
2019-01-04T08:36:30.756Z,8.90
2019-01-04T08:37:30.922Z,9.30
2019-01-04T08:38:31.094Z,9.70
2019-01-04T08:39:31.264Z,10.40
2019-01-04T08:40:31.439Z,10.10
2019-01-04T08:41:31.608Z,9.30
2019-01-04T08:42:31.770Z,9.10
2019-01-04T08:43:31.944Z,9.50
2019-01-04T08:44:32.116Z,9.90
2019-01-04T08:45:32.278Z,9.50
2019-01-04T08:46:32.455Z,8.50
2019-01-04T08:47:32.630Z,9.00
2019-01-04T08:48:32.795Z,9.40
2019-01-04T08:49:32.966Z,9.00
2019-01-04T08:50:33.140Z,9.30
2019-01-04T08:51:33.313Z,8.60
2019-01-04T08:52:33.476Z,9.50
2019-01-04T08:53:33.664Z,8.70
2019-01-04T08:54:33.797Z,8.70
2019-01-04T08:55:33.982Z,9.70
2019-01-04T08:56:34.156Z,9.10
2019-01-04T08:57:34.331Z,9.40
2019-01-04T08:58:34.494Z,8.80
2019-01-04T08:59:34.676Z,8.30
2019-01-04T09:00:34.845Z,9.10
2019-01-04T09:01:35.014Z,9.50
2019-01-04T09:02:35.183Z,8.70
2019-01-04T09:03:35.342Z,8.40
2019-01-04T09:04:35.512Z,8.20
2019-01-04T09:05:35.678Z,8.20
2019-01-04T09:06:35.855Z,8.30
2019-01-04T09:07:36.028Z,8.60
2019-01-04T09:08:36.195Z,8.50
2019-01-04T09:09:36.367Z,7.50
2019-01-04T09:10:36.534Z,8.20
2019-01-04T09:11:36.701Z,8.10
2019-01-04T09:12:36.872Z,8.00
2019-01-04T09:13:37.041Z,8.20
2019-01-04T09:14:37.206Z,8.20
2019-01-04T09:15:37.389Z,8.40
2019-01-04T09:16:37.563Z,8.50
2019-01-04T09:17:37.739Z,8.70
2019-01-04T09:18:37.909Z,8.60
2019-01-04T09:19:38.072Z,8.70
2019-01-04T09:20:38.243Z,8.80
2019-01-04T09:21:38.418Z,9.10
2019-01-04T09:22:38.582Z,9.40
2019-01-04T09:23:38.755Z,8.70
2019-01-04T09:24:38.931Z,8.90
2019-01-04T09:25:39.103Z,8.90
2019-01-04T09:26:39.262Z,10.10
2019-01-04T09:27:39.435Z,9.50
2019-01-04T09:28:39.601Z,9.30
2019-01-04T09:29:39.774Z,9.70
2019-01-04T09:30:39.948Z,10.10
2019-01-04T09:31:40.113Z,10.70
2019-01-04T09:32:40.279Z,10.00
2019-01-04T09:33:40.458Z,10.30
2019-01-04T09:34:40.630Z,10.80
2019-01-04T09:35:40.810Z,11.70
2019-01-04T09:36:40.967Z,10.90
2019-01-04T09:37:41.127Z,11.30
2019-01-04T09:38:41.340Z,11.30
2019-01-04T09:39:41.489Z,11.50
2019-01-04T09:40:41.649Z,11.00
2019-01-04T09:41:41.817Z,11.60
2019-01-04T09:42:41.987Z,11.50
2019-01-04T09:43:42.167Z,10.60
2019-01-04T09:44:42.326Z,11.90
2019-01-04T09:45:42.499Z,11.20
2019-01-04T09:46:42.674Z,11.50
2019-01-04T09:47:42.844Z,11.10
2019-01-04T09:48:43.016Z,11.50
2019-01-04T09:49:43.174Z,11.50
2019-01-04T09:50:43.347Z,11.30
2019-01-04T09:51:43.515Z,10.60
2019-01-04T09:52:43.688Z,11.00
2019-01-04T09:53:43.858Z,11.10
2019-01-04T09:54:44.040Z,10.70
2019-01-04T09:55:44.207Z,11.10
2019-01-04T09:56:44.376Z,10.80
2019-01-04T09:57:44.543Z,11.40
2019-01-04T09:58:44.720Z,11.60
2019-01-04T09:59:44.888Z,11.30
2019-01-04T10:00:45.063Z,12.70
2019-01-04T10:01:45.231Z,13.50
2019-01-04T10:02:45.407Z,12.60
2019-01-04T10:03:45.582Z,11.60
2019-01-04T10:04:45.750Z,11.90
2019-01-04T10:05:45.911Z,11.40
2019-01-04T10:06:46.086Z,10.40
2019-01-04T10:07:46.266Z,11.20
2019-01-04T10:08:46.438Z,11.70
2019-01-04T10:09:46.638Z,11.30
2019-01-04T10:10:46.764Z,12.50
2019-01-04T10:11:46.930Z,11.20
2019-01-04T10:12:47.106Z,13.10
2019-01-04T10:13:47.267Z,12.40
2019-01-04T10:14:47.438Z,12.10
2019-01-04T10:15:47.610Z,11.70
2019-01-04T10:16:47.782Z,12.50
2019-01-04T10:17:47.972Z,13.10
2019-01-04T10:18:48.125Z,15.20
2019-01-04T10:19:48.288Z,13.20
2019-01-04T10:20:48.462Z,13.70
2019-01-04T10:21:48.632Z,13.20
2019-01-04T10:22:48.802Z,14.10
2019-01-04T10:23:48.971Z,14.70
2019-01-04T10:24:49.142Z,13.30
2019-01-04T10:25:49.308Z,13.10
2019-01-04T10:26:49.482Z,12.50
2019-01-04T10:27:49.656Z,12.60
2019-01-04T10:28:49.824Z,12.20
2019-01-04T10:29:49.996Z,11.40
2019-01-04T10:30:50.164Z,10.80
2019-01-04T10:31:50.337Z,11.50
2019-01-04T10:32:50.525Z,10.60
2019-01-04T10:33:50.675Z,9.10
2019-01-04T10:34:50.843Z,9.40
2019-01-04T10:35:51.021Z,9.80
2019-01-04T10:36:51.195Z,8.40
2019-01-04T10:37:51.366Z,8.90
2019-01-04T10:38:51.546Z,9.10
2019-01-04T10:39:51.732Z,9.00
2019-01-04T10:40:51.895Z,7.80
2019-01-04T10:41:52.068Z,7.30
2019-01-04T10:42:52.242Z,7.10
2019-01-04T10:43:52.403Z,7.20
2019-01-04T10:44:52.591Z,6.80
2019-01-04T10:45:52.893Z,8.10
2019-01-04T10:46:52.945Z,8.30
2019-01-04T10:47:53.136Z,9.30
2019-01-04T10:48:53.304Z,8.90
2019-01-04T10:49:53.522Z,8.50
2019-01-04T10:50:53.645Z,8.20
2019-01-04T10:51:53.852Z,7.60
2019-01-04T10:52:53.973Z,6.20
2019-01-04T10:53:54.226Z,7.30
2019-01-04T10:54:54.315Z,6.40
2019-01-04T10:55:54.507Z,6.70
2019-01-04T10:56:54.670Z,6.40
2019-01-04T10:57:54.855Z,5.80
2019-01-04T10:58:55.023Z,6.70
2019-01-04T10:59:55.194Z,6.10
2019-01-04T11:00:55.374Z,7.60
2019-01-04T11:01:55.552Z,7.00
2019-01-04T11:02:55.724Z,7.00
2019-01-04T11:03:55.891Z,6.20
2019-01-04T11:04:56.059Z,8.60
2019-01-04T11:05:56.232Z,7.30
2019-01-04T11:06:56.403Z,6.20
2019-01-04T11:07:56.572Z,6.00
2019-01-04T11:08:56.758Z,6.00
2019-01-04T11:09:56.914Z,6.60
2019-01-04T11:10:57.092Z,6.80
2019-01-04T11:11:57.311Z,6.00
2019-01-04T11:12:57.421Z,6.90
2019-01-04T11:13:57.591Z,5.70
2019-01-04T11:14:57.772Z,5.70
2019-01-04T11:15:57.942Z,5.90
2019-01-04T11:16:58.387Z,6.30
2019-01-04T11:17:58.277Z,5.90
2019-01-04T11:18:58.451Z,5.90
2019-01-04T11:19:58.621Z,5.70
2019-01-04T11:20:58.792Z,6.20
2019-01-04T11:21:58.963Z,6.50
2019-01-04T11:22:59.141Z,6.20
2019-01-04T11:23:59.301Z,6.30
2019-01-04T11:24:59.476Z,6.00
2019-01-04T11:25:59.653Z,6.00
2019-01-04T11:26:59.818Z,6.50
2019-01-04T11:27:59.992Z,6.20
2019-01-04T11:29:00.163Z,6.10
2019-01-04T11:30:00.333Z,6.20
2019-01-04T11:31:00.503Z,6.80
2019-01-04T11:32:00.677Z,6.20
2019-01-04T11:33:00.849Z,6.70
2019-01-04T11:34:01.014Z,6.40
2019-01-04T11:35:01.185Z,6.50
2019-01-04T11:36:01.359Z,6.70
2019-01-04T11:37:01.535Z,6.50
2019-01-04T11:38:01.704Z,6.70
2019-01-04T11:39:01.887Z,9.40
2019-01-04T11:40:02.067Z,8.00
2019-01-04T11:41:02.227Z,7.50
2019-01-04T11:42:02.400Z,7.20
2019-01-04T11:43:02.565Z,7.00
2019-01-04T11:44:02.747Z,6.40
2019-01-04T11:45:02.926Z,6.40
2019-01-04T11:46:03.085Z,7.00
2019-01-04T11:47:03.257Z,7.00
2019-01-04T11:48:03.428Z,6.30
2019-01-04T11:49:03.596Z,6.50
2019-01-04T11:50:03.775Z,6.40
2019-01-04T11:51:03.933Z,7.20
2019-01-04T11:52:04.107Z,7.10
2019-01-04T11:53:04.278Z,7.10
2019-01-04T11:54:04.445Z,6.90
2019-01-04T11:55:04.624Z,6.80
2019-01-04T11:56:04.801Z,6.10
2019-01-04T11:57:04.964Z,6.50
2019-01-04T11:58:05.131Z,6.60
2019-01-04T11:59:05.309Z,6.40
2019-01-04T12:00:05.478Z,6.30
2019-01-04T12:01:05.652Z,6.50
2019-01-04T12:02:05.818Z,6.30
2019-01-04T12:03:05.993Z,6.60
2019-01-04T12:04:06.155Z,6.90
2019-01-04T12:05:06.322Z,6.30
2019-01-04T12:06:06.505Z,6.60
2019-01-04T12:07:06.663Z,6.40
2019-01-04T12:08:06.835Z,6.60
2019-01-04T12:09:07.009Z,6.60
2019-01-04T12:10:07.180Z,7.10
2019-01-04T12:11:07.359Z,6.70
2019-01-04T12:12:07.546Z,6.60
2019-01-04T12:13:07.726Z,6.90
2019-01-04T12:14:07.876Z,6.70
2019-01-04T12:15:08.035Z,6.90
2019-01-04T12:16:08.197Z,7.10
2019-01-04T12:17:08.367Z,6.90
2019-01-04T12:18:08.539Z,7.40
2019-01-04T12:19:08.709Z,7.40
2019-01-04T12:20:08.884Z,7.40
2019-01-04T12:21:09.051Z,7.40
2019-01-04T12:22:09.219Z,7.50
2019-01-04T12:23:11.256Z,7.40
2019-01-04T12:24:09.582Z,7.30
2019-01-04T12:25:09.743Z,8.00
2019-01-04T12:26:09.906Z,8.10
2019-01-04T12:27:10.085Z,7.90
2019-01-04T12:28:10.247Z,8.40
2019-01-04T12:29:10.412Z,7.80
2019-01-04T12:30:10.582Z,8.40
2019-01-04T12:31:10.765Z,7.80
2019-01-04T12:32:10.917Z,8.30
2019-01-04T12:33:11.097Z,8.10
2019-01-04T12:34:16.643Z,7.60
2019-01-04T12:35:11.430Z,10.20
2019-01-04T12:36:11.599Z,14.80
2019-01-04T12:37:11.756Z,9.90
2019-01-04T12:38:11.940Z,8.20
2019-01-04T12:39:12.132Z,9.80
2019-01-04T12:40:12.282Z,8.20
2019-01-04T12:41:12.461Z,8.30
2019-01-04T12:42:12.633Z,8.40
2019-01-04T12:43:12.794Z,8.40
2019-01-04T12:44:12.954Z,8.40
2019-01-04T12:45:13.131Z,8.30
2019-01-04T12:46:13.302Z,8.00
2019-01-04T12:47:13.473Z,9.40
2019-01-04T12:48:13.635Z,15.90
2019-01-04T12:49:13.806Z,10.00
2019-01-04T12:50:13.970Z,9.80
2019-01-04T12:51:14.148Z,9.60
2019-01-04T12:52:14.312Z,8.10
2019-01-04T12:53:14.497Z,8.60
2019-01-04T12:54:14.660Z,8.30
2019-01-04T12:55:14.839Z,8.70
2019-01-04T12:56:15.007Z,8.80
2019-01-04T12:57:15.182Z,11.90
2019-01-04T12:58:15.360Z,9.00
2019-01-04T12:59:15.525Z,10.40
2019-01-04T13:00:15.694Z,9.40
2019-01-04T13:01:15.881Z,8.50
2019-01-04T13:02:16.048Z,9.80